sensor_id;sensor_type;location;lat;lon;timestamp;pressure;altitude;pressure_sealevel;temperature;humidity
31239;BME280;17871;31.584;74.450;2023-02-21T00:02:39;98393.06;;;19.48;93.28
31239;BME280;17871;31.584;74.450;2023-02-21T00:05:27;98382.78;;;19.45;93.37
31239;BME280;17871;31.584;74.450;2023-02-21T00:08:14;98389.63;;;19.48;92.91
31239;BME280;17871;31.584;74.450;2023-02-21T00:11:01;98389.78;;;19.42;93.18
31239;BME280;17871;31.584;74.450;2023-02-21T00:13:50;98395.34;;;19.27;94.20
31239;BME280;17871;31.584;74.450;2023-02-21T00:16:37;98391.72;;;19.03;95.22
31239;BME280;17871;31.584;74.450;2023-02-21T00:19:25;98398.34;;;19.13;94.54
31239;BME280;17871;31.584;74.450;2023-02-21T00:22:13;98400.09;;;19.12;94.25
31239;BME280;17871;31.584;74.450;2023-02-21T00:25:00;98412.19;;;19.12;94.22
31239;BME280;17871;31.584;74.450;2023-02-21T00:27:47;98417.88;;;18.92;94.19
31239;BME280;17871;31.584;74.450;2023-02-21T00:30:34;98432.72;;;18.86;94.71
31239;BME280;17871;31.584;74.450;2023-02-21T00:33:22;98441.00;;;18.64;95.51
31239;BME280;17871;31.584;74.450;2023-02-21T00:36:15;98436.75;;;18.63;96.05
31239;BME280;17871;31.584;74.450;2023-02-21T00:39:02;98436.34;;;18.79;94.22
31239;BME280;17871;31.584;74.450;2023-02-21T00:41:50;98435.44;;;18.81;93.34
31239;BME280;17871;31.584;74.450;2023-02-21T00:44:37;98441.28;;;18.89;93.14
31239;BME280;17871;31.584;74.450;2023-02-21T00:47:24;98444.78;;;18.87;93.46
31239;BME280;17871;31.584;74.450;2023-02-21T00:50:12;98454.00;;;18.97;93.86
31239;BME280;17871;31.584;74.450;2023-02-21T00:53:00;98459.47;;;18.86;94.32
31239;BME280;17871;31.584;74.450;2023-02-21T00:55:47;98469.22;;;18.77;94.27
31239;BME280;17871;31.584;74.450;2023-02-21T00:58:35;98470.31;;;18.67;94.46
31239;BME280;17871;31.584;74.450;2023-02-21T01:01:23;98471.91;;;18.72;94.42
31239;BME280;17871;31.584;74.450;2023-02-21T01:04:12;98474.50;;;18.71;94.30
31239;BME280;17871;31.584;74.450;2023-02-21T01:07:01;98475.28;;;18.76;93.64
31239;BME280;17871;31.584;74.450;2023-02-21T01:09:49;98481.16;;;18.82;93.22
31239;BME280;17871;31.584;74.450;2023-02-21T01:12:38;98489.09;;;18.75;93.13
31239;BME280;17871;31.584;74.450;2023-02-21T01:15:26;98495.09;;;18.77;93.01
31239;BME280;17871;31.584;74.450;2023-02-21T01:18:15;98493.34;;;18.77;93.10
31239;BME280;17871;31.584;74.450;2023-02-21T01:21:03;98493.25;;;18.82;92.72
31239;BME280;17871;31.584;74.450;2023-02-21T01:23:52;98497.88;;;18.69;92.90
31239;BME280;17871;31.584;74.450;2023-02-21T01:26:40;98498.59;;;18.74;92.68
31239;BME280;17871;31.584;74.450;2023-02-21T01:29:27;98505.72;;;18.64;92.84
31239;BME280;17871;31.584;74.450;2023-02-21T01:32:15;98506.75;;;18.57;92.82
31239;BME280;17871;31.584;74.450;2023-02-21T01:35:05;98510.25;;;18.55;92.96
31239;BME280;17871;31.584;74.450;2023-02-21T01:37:52;98512.28;;;18.41;93.86
31239;BME280;17871;31.584;74.450;2023-02-21T01:40:40;98515.06;;;18.33;93.37
31239;BME280;17871;31.584;74.450;2023-02-21T01:43:28;98529.22;;;18.15;93.92
31239;BME280;17871;31.584;74.450;2023-02-21T01:46:18;98532.94;;;18.04;94.44
31239;BME280;17871;31.584;74.450;2023-02-21T01:49:12;98533.22;;;17.89;94.20
31239;BME280;17871;31.584;74.450;2023-02-21T01:52:03;98541.81;;;17.91;94.08
31239;BME280;17871;31.584;74.450;2023-02-21T01:54:53;98549.56;;;17.91;93.86
31239;BME280;17871;31.584;74.450;2023-02-21T01:57:45;98542.75;;;17.85;93.93
31239;BME280;17871;31.584;74.450;2023-02-21T02:00:33;98543.09;;;17.69;94.41
31239;BME280;17871;31.584;74.450;2023-02-21T02:03:21;98549.78;;;17.80;94.15
31239;BME280;17871;31.584;74.450;2023-02-21T02:06:12;98552.28;;;17.85;94.00
31239;BME280;17871;31.584;74.450;2023-02-21T02:09:18;98561.72;;;17.86;92.28
31239;BME280;17871;31.584;74.450;2023-02-21T02:15:14;98564.31;;;17.86;89.71
31239;BME280;17871;31.584;74.450;2023-02-21T02:30:02;98588.28;;;17.94;85.33
31239;BME280;17871;31.584;74.450;2023-02-21T02:32:59;98595.31;;;17.86;84.67
31239;BME280;17871;31.584;74.450;2023-02-21T02:35:38;98598.81;;;17.85;83.95
31239;BME280;17871;31.584;74.450;2023-02-21T02:38:31;98606.44;;;17.91;83.90
31239;BME280;17871;31.584;74.450;2023-02-21T02:41:32;98606.19;;;18.04;83.07
31239;BME280;17871;31.584;74.450;2023-02-21T02:44:47;98610.44;;;18.07;82.57
31239;BME280;17871;31.584;74.450;2023-02-21T02:47:27;98608.59;;;18.12;82.25
31239;BME280;17871;31.584;74.450;2023-02-21T02:50:05;98618.25;;;18.04;81.84
31239;BME280;17871;31.584;74.450;2023-02-21T02:52:36;98617.53;;;17.97;81.77
31239;BME280;17871;31.584;74.450;2023-02-21T02:58:02;98621.47;;;18.15;81.33
31239;BME280;17871;31.584;74.450;2023-02-21T03:00:34;98626.38;;;18.29;81.03
31239;BME280;17871;31.584;74.450;2023-02-21T03:06:01;98631.50;;;18.32;80.42
31239;BME280;17871;31.584;74.450;2023-02-21T03:08:43;98634.19;;;18.27;80.80
31239;BME280;17871;31.584;74.450;2023-02-21T03:11:22;98639.31;;;18.29;80.85
31239;BME280;17871;31.584;74.450;2023-02-21T03:13:58;98635.66;;;18.40;80.72
31239;BME280;17871;31.584;74.450;2023-02-21T03:16:53;98639.84;;;18.44;80.24
31239;BME280;17871;31.584;74.450;2023-02-21T03:19:30;98644.00;;;18.54;80.27
31239;BME280;17871;31.584;74.450;2023-02-21T03:22:06;98649.16;;;18.54;80.41
31239;BME280;17871;31.584;74.450;2023-02-21T03:24:38;98652.66;;;18.53;79.58
31239;BME280;17871;31.584;74.450;2023-02-21T03:27:10;98659.63;;;18.48;80.24
31239;BME280;17871;31.584;74.450;2023-02-21T03:29:57;98663.88;;;18.54;80.14
31239;BME280;17871;31.584;74.450;2023-02-21T03:32:33;98667.72;;;18.76;79.78
31239;BME280;17871;31.584;74.450;2023-02-21T03:35:05;98665.47;;;18.59;79.73
31239;BME280;17871;31.584;74.450;2023-02-21T03:37:45;98658.09;;;18.81;79.63
31239;BME280;17871;31.584;74.450;2023-02-21T03:40:20;98663.84;;;18.94;79.06
31239;BME280;17871;31.584;74.450;2023-02-21T03:42:53;98665.28;;;19.07;78.78
31239;BME280;17871;31.584;74.450;2023-02-21T03:45:23;98668.56;;;19.15;78.12
31239;BME280;17871;31.584;74.450;2023-02-21T03:48:03;98668.56;;;19.15;76.85
31239;BME280;17871;31.584;74.450;2023-02-21T03:50:34;98666.50;;;19.29;76.45
31239;BME280;17871;31.584;74.450;2023-02-21T03:53:03;98670.63;;;19.38;75.64
31239;BME280;17871;31.584;74.450;2023-02-21T03:55:35;98671.09;;;19.55;74.68
31239;BME280;17871;31.584;74.450;2023-02-21T03:58:10;98670.34;;;19.13;74.61
31239;BME280;17871;31.584;74.450;2023-02-21T04:00:40;98672.03;;;19.14;75.61
31239;BME280;17871;31.584;74.450;2023-02-21T04:03:09;98671.44;;;19.41;75.49
31239;BME280;17871;31.584;74.450;2023-02-21T04:05:44;98675.53;;;19.13;75.77
31239;BME280;17871;31.584;74.450;2023-02-21T04:08:14;98672.69;;;19.60;75.15
31239;BME280;17871;31.584;74.450;2023-02-21T04:10:43;98673.91;;;19.80;73.79
31239;BME280;17871;31.584;74.450;2023-02-21T04:13:22;98682.28;;;19.57;75.01
31239;BME280;17871;31.584;74.450;2023-02-21T04:15:52;98677.78;;;19.27;75.92
31239;BME280;17871;31.584;74.450;2023-02-21T04:18:21;98674.09;;;19.74;75.70
31239;BME280;17871;31.584;74.450;2023-02-21T04:20:52;98677.28;;;19.83;75.36
31239;BME280;17871;31.584;74.450;2023-02-21T04:23:21;98675.78;;;19.75;74.81
31239;BME280;17871;31.584;74.450;2023-02-21T04:25:51;98684.81;;;20.26;74.24
31239;BME280;17871;31.584;74.450;2023-02-21T04:28:26;98680.38;;;20.31;73.31
31239;BME280;17871;31.584;74.450;2023-02-21T04:30:55;98689.06;;;20.30;72.41
31239;BME280;17871;31.584;74.450;2023-02-21T04:33:24;98687.53;;;20.22;73.38
31239;BME280;17871;31.584;74.450;2023-02-21T04:35:53;98685.63;;;20.60;72.57
31239;BME280;17871;31.584;74.450;2023-02-21T04:38:26;98697.78;;;20.58;72.00
31239;BME280;17871;31.584;74.450;2023-02-21T04:40:55;98688.75;;;20.71;71.52
31239;BME280;17871;31.584;74.450;2023-02-21T04:43:24;98692.97;;;20.76;70.72
31239;BME280;17871;31.584;74.450;2023-02-21T04:45:53;98694.00;;;20.99;70.75
31239;BME280;17871;31.584;74.450;2023-02-21T04:48:25;98697.22;;;21.07;70.55
31239;BME280;17871;31.584;74.450;2023-02-21T04:50:54;98695.28;;;20.85;70.92
31239;BME280;17871;31.584;74.450;2023-02-21T04:53:33;98700.44;;;21.17;69.93
31239;BME280;17871;31.584;74.450;2023-02-21T04:56:01;98697.53;;;21.26;69.50
31239;BME280;17871;31.584;74.450;2023-02-21T04:58:31;98697.34;;;21.32;68.67
31239;BME280;17871;31.584;74.450;2023-02-21T05:01:12;98691.47;;;21.53;68.44
31239;BME280;17871;31.584;74.450;2023-02-21T05:03:42;98689.66;;;21.55;68.91
31239;BME280;17871;31.584;74.450;2023-02-21T05:06:20;98691.94;;;21.66;68.52
31239;BME280;17871;31.584;74.450;2023-02-21T05:08:49;98692.69;;;21.69;68.40
31239;BME280;17871;31.584;74.450;2023-02-21T05:11:19;98693.88;;;21.86;68.20
31239;BME280;17871;31.584;74.450;2023-02-21T05:13:48;98704.38;;;21.56;68.82
31239;BME280;17871;31.584;74.450;2023-02-21T05:16:18;98701.78;;;21.83;68.83
31239;BME280;17871;31.584;74.450;2023-02-21T05:18:48;98703.84;;;21.99;68.44
31239;BME280;17871;31.584;74.450;2023-02-21T05:21:18;98704.97;;;21.92;68.59
31239;BME280;17871;31.584;74.450;2023-02-21T05:23:47;98698.25;;;22.10;68.15
31239;BME280;17871;31.584;74.450;2023-02-21T05:26:27;98701.13;;;22.27;68.18
31239;BME280;17871;31.584;74.450;2023-02-21T05:28:58;98705.81;;;22.42;67.95
31239;BME280;17871;31.584;74.450;2023-02-21T05:31:27;98708.97;;;22.50;68.54
31239;BME280;17871;31.584;74.450;2023-02-21T05:33:57;98705.75;;;22.68;67.93
31239;BME280;17871;31.584;74.450;2023-02-21T05:36:26;98707.19;;;22.52;67.47
31239;BME280;17871;31.584;74.450;2023-02-21T05:38:55;98706.69;;;22.66;67.66
31239;BME280;17871;31.584;74.450;2023-02-21T05:41:23;98698.16;;;22.86;67.46
31239;BME280;17871;31.584;74.450;2023-02-21T05:43:52;98694.81;;;22.82;67.67
31239;BME280;17871;31.584;74.450;2023-02-21T05:46:27;98698.59;;;22.97;67.19
31239;BME280;17871;31.584;74.450;2023-02-21T05:48:58;98691.31;;;22.83;68.02
31239;BME280;17871;31.584;74.450;2023-02-21T05:51:37;98698.19;;;23.07;67.74
31239;BME280;17871;31.584;74.450;2023-02-21T05:54:08;98693.47;;;23.17;67.60
31239;BME280;17871;31.584;74.450;2023-02-21T05:56:40;98685.13;;;23.52;67.00
31239;BME280;17871;31.584;74.450;2023-02-21T05:59:10;98687.69;;;23.54;67.41
31239;BME280;17871;31.584;74.450;2023-02-21T06:01:39;98687.63;;;23.55;66.80
31239;BME280;17871;31.584;74.450;2023-02-21T06:04:08;98679.78;;;23.55;66.63
31239;BME280;17871;31.584;74.450;2023-02-21T06:06:37;98685.84;;;23.77;66.51
31239;BME280;17871;31.584;74.450;2023-02-21T06:09:06;98683.00;;;23.84;65.75
31239;BME280;17871;31.584;74.450;2023-02-21T06:11:37;98691.41;;;24.10;65.40
31239;BME280;17871;31.584;74.450;2023-02-21T06:14:13;98686.88;;;24.15;65.30
31239;BME280;17871;31.584;74.450;2023-02-21T06:16:43;98697.41;;;23.92;65.22
31239;BME280;17871;31.584;74.450;2023-02-21T06:19:13;98691.25;;;24.15;65.48
31239;BME280;17871;31.584;74.450;2023-02-21T06:21:44;98680.91;;;24.32;64.62
31239;BME280;17871;31.584;74.450;2023-02-21T06:24:13;98674.81;;;24.13;65.17
31239;BME280;17871;31.584;74.450;2023-02-21T06:26:42;98675.53;;;24.16;65.52
31239;BME280;17871;31.584;74.450;2023-02-21T06:29:12;98665.38;;;24.29;65.84
31239;BME280;17871;31.584;74.450;2023-02-21T06:31:41;98674.81;;;24.52;64.13
31239;BME280;17871;31.584;74.450;2023-02-21T06:34:10;98667.41;;;24.61;63.89
31239;BME280;17871;31.584;74.450;2023-02-21T06:36:39;98668.69;;;24.71;63.66
31239;BME280;17871;31.584;74.450;2023-02-21T06:39:09;98663.88;;;24.83;63.44
31239;BME280;17871;31.584;74.450;2023-02-21T06:41:39;98657.50;;;24.88;62.13
31239;BME280;17871;31.584;74.450;2023-02-21T06:44:08;98653.59;;;24.97;62.80
31239;BME280;17871;31.584;74.450;2023-02-21T06:46:37;98653.59;;;24.97;63.11
31239;BME280;17871;31.584;74.450;2023-02-21T06:49:06;98644.25;;;25.10;60.59
31239;BME280;17871;31.584;74.450;2023-02-21T06:51:37;98641.44;;;25.14;61.70
31239;BME280;17871;31.584;74.450;2023-02-21T06:54:06;98641.53;;;25.30;61.41
31239;BME280;17871;31.584;74.450;2023-02-21T06:56:36;98639.72;;;25.32;60.21
31239;BME280;17871;31.584;74.450;2023-02-21T06:59:04;98641.22;;;25.36;60.27
31239;BME280;17871;31.584;74.450;2023-02-21T07:01:33;98636.16;;;25.52;57.96
31239;BME280;17871;31.584;74.450;2023-02-21T07:04:03;98631.00;;;25.67;59.63
31239;BME280;17871;31.584;74.450;2023-02-21T07:06:32;98631.72;;;25.52;59.34
31239;BME280;17871;31.584;74.450;2023-02-21T07:09:00;98634.06;;;25.93;59.91
31239;BME280;17871;31.584;74.450;2023-02-21T07:11:31;98630.03;;;26.03;60.07
31239;BME280;17871;31.584;74.450;2023-02-21T07:14:01;98627.09;;;26.09;57.84
31239;BME280;17871;31.584;74.450;2023-02-21T07:16:30;98624.22;;;25.98;57.46
31239;BME280;17871;31.584;74.450;2023-02-21T07:18:59;98621.28;;;26.21;59.25
31239;BME280;17871;31.584;74.450;2023-02-21T07:21:28;98615.03;;;26.23;58.92
31239;BME280;17871;31.584;74.450;2023-02-21T07:23:58;98613.41;;;26.04;56.59
31239;BME280;17871;31.584;74.450;2023-02-21T07:26:27;98607.22;;;26.22;56.78
31239;BME280;17871;31.584;74.450;2023-02-21T07:28:56;98609.00;;;26.21;57.11
31239;BME280;17871;31.584;74.450;2023-02-21T07:31:24;98606.44;;;26.53;57.91
31239;BME280;17871;31.584;74.450;2023-02-21T07:33:54;98614.09;;;26.57;58.30
31239;BME280;17871;31.584;74.450;2023-02-21T07:36:23;98595.94;;;26.37;57.05
31239;BME280;17871;31.584;74.450;2023-02-21T07:38:52;98592.09;;;26.44;58.87
31239;BME280;17871;31.584;74.450;2023-02-21T07:41:20;98587.34;;;26.66;59.34
31239;BME280;17871;31.584;74.450;2023-02-21T07:43:49;98587.34;;;26.66;59.28
31239;BME280;17871;31.584;74.450;2023-02-21T07:46:18;98588.34;;;26.48;58.62
31239;BME280;17871;31.584;74.450;2023-02-21T07:48:47;98577.63;;;26.53;59.20
31239;BME280;17871;31.584;74.450;2023-02-21T07:51:16;98580.91;;;26.56;58.74
31239;BME280;17871;31.584;74.450;2023-02-21T07:53:45;98571.69;;;26.34;58.42
31239;BME280;17871;31.584;74.450;2023-02-21T07:56:13;98562.84;;;26.67;58.14
31239;BME280;17871;31.584;74.450;2023-02-21T07:58:42;98558.59;;;26.80;58.01
31239;BME280;17871;31.584;74.450;2023-02-21T08:01:11;98557.34;;;26.88;57.33
31239;BME280;17871;31.584;74.450;2023-02-21T08:03:41;98550.13;;;26.75;56.79
31239;BME280;17871;31.584;74.450;2023-02-21T08:06:10;98543.78;;;26.95;55.98
31239;BME280;17871;31.584;74.450;2023-02-21T08:08:39;98541.91;;;26.97;55.43
31239;BME280;17871;31.584;74.450;2023-02-21T08:11:08;98541.66;;;27.02;55.29
31239;BME280;17871;31.584;74.450;2023-02-21T08:13:36;98537.78;;;27.09;55.03
31239;BME280;17871;31.584;74.450;2023-02-21T08:16:05;98537.22;;;27.18;55.89
31239;BME280;17871;31.584;74.450;2023-02-21T08:18:35;98525.69;;;26.91;56.18
31239;BME280;17871;31.584;74.450;2023-02-21T08:21:08;98530.94;;;27.20;56.48
31239;BME280;17871;31.584;74.450;2023-02-21T08:23:38;98529.47;;;27.01;56.32
31239;BME280;17871;31.584;74.450;2023-02-21T08:26:06;98521.31;;;27.21;55.67
31239;BME280;17871;31.584;74.450;2023-02-21T08:28:37;98519.16;;;27.13;56.79
31239;BME280;17871;31.584;74.450;2023-02-21T08:31:07;98527.44;;;27.06;57.34
31239;BME280;17871;31.584;74.450;2023-02-21T08:33:36;98514.78;;;27.28;57.69
31239;BME280;17871;31.584;74.450;2023-02-21T08:36:05;98512.88;;;27.30;57.55
31239;BME280;17871;31.584;74.450;2023-02-21T08:38:34;98507.88;;;27.41;58.00
31239;BME280;17871;31.584;74.450;2023-02-21T08:41:03;98505.16;;;27.43;58.34
31239;BME280;17871;31.584;74.450;2023-02-21T08:43:33;98501.91;;;27.53;57.81
31239;BME280;17871;31.584;74.450;2023-02-21T08:46:02;98503.31;;;27.45;58.61
31239;BME280;17871;31.584;74.450;2023-02-21T08:48:31;98492.31;;;27.38;57.23
31239;BME280;17871;31.584;74.450;2023-02-21T08:51:00;98490.78;;;27.50;57.67
31239;BME280;17871;31.584;74.450;2023-02-21T08:53:31;98488.22;;;27.48;57.46
31239;BME280;17871;31.584;74.450;2023-02-21T08:55:59;98488.03;;;27.51;57.83
31239;BME280;17871;31.584;74.450;2023-02-21T08:58:28;98479.75;;;27.43;58.31
31239;BME280;17871;31.584;74.450;2023-02-21T09:00:57;98479.72;;;27.59;57.26
31239;BME280;17871;31.584;74.450;2023-02-21T09:03:26;98481.75;;;27.54;57.62
31239;BME280;17871;31.584;74.450;2023-02-21T09:05:55;98476.97;;;27.60;56.54
31239;BME280;17871;31.584;74.450;2023-02-21T09:08:24;98484.22;;;27.71;57.18
31239;BME280;17871;31.584;74.450;2023-02-21T09:10:57;98479.22;;;27.66;56.53
31239;BME280;17871;31.584;74.450;2023-02-21T09:13:30;98482.44;;;27.71;55.94
31239;BME280;17871;31.584;74.450;2023-02-21T09:16:02;98480.19;;;27.65;55.57
31239;BME280;17871;31.584;74.450;2023-02-21T09:18:32;98480.19;;;27.65;55.65
31239;BME280;17871;31.584;74.450;2023-02-21T09:21:01;98475.84;;;27.50;56.03
31239;BME280;17871;31.584;74.450;2023-02-21T09:23:30;98480.38;;;27.62;54.51
31239;BME280;17871;31.584;74.450;2023-02-21T09:26:01;98476.22;;;28.01;53.21
31239;BME280;17871;31.584;74.450;2023-02-21T09:28:31;98480.34;;;27.76;54.09
31239;BME280;17871;31.584;74.450;2023-02-21T09:31:00;98474.44;;;27.87;53.96
31239;BME280;17871;31.584;74.450;2023-02-21T09:33:29;98477.00;;;27.89;53.90
31239;BME280;17871;31.584;74.450;2023-02-21T09:35:58;98472.94;;;27.83;54.63
31239;BME280;17871;31.584;74.450;2023-02-21T09:38:27;98462.72;;;27.64;54.82
31239;BME280;17871;31.584;74.450;2023-02-21T09:41:01;98461.91;;;27.92;54.89
31239;BME280;17871;31.584;74.450;2023-02-21T09:43:37;98452.03;;;27.96;54.09
31239;BME280;17871;31.584;74.450;2023-02-21T09:47:13;98453.72;;;27.97;53.39
31239;BME280;17871;31.584;74.450;2023-02-21T09:49:38;98457.09;;;27.99;53.66
31239;BME280;17871;31.584;74.450;2023-02-21T09:52:40;98446.78;;;27.96;52.78
31239;BME280;17871;31.584;74.450;2023-02-21T09:57:57;98442.09;;;27.87;53.68
31239;BME280;17871;31.584;74.450;2023-02-21T10:00:35;98442.06;;;28.01;53.79
31239;BME280;17871;31.584;74.450;2023-02-21T10:03:31;98439.09;;;28.07;53.94
31239;BME280;17871;31.584;74.450;2023-02-21T10:11:36;98439.44;;;28.01;54.60
31239;BME280;17871;31.584;74.450;2023-02-21T10:17:44;98435.31;;;27.97;53.86
31239;BME280;17871;31.584;74.450;2023-02-21T10:20:32;98432.88;;;27.94;54.20
31239;BME280;17871;31.584;74.450;2023-02-21T10:23:11;98438.72;;;27.84;54.10
31239;BME280;17871;31.584;74.450;2023-02-21T10:25:44;98424.47;;;27.89;54.53
31239;BME280;17871;31.584;74.450;2023-02-21T10:28:18;98426.50;;;27.83;53.41
31239;BME280;17871;31.584;74.450;2023-02-21T10:30:49;98428.78;;;27.75;53.97
31239;BME280;17871;31.584;74.450;2023-02-21T10:33:20;98426.16;;;27.61;54.63
31239;BME280;17871;31.584;74.450;2023-02-21T10:35:48;98431.22;;;27.78;54.87
31239;BME280;17871;31.584;74.450;2023-02-21T10:38:24;98423.63;;;27.88;55.90
31239;BME280;17871;31.584;74.450;2023-02-21T10:40:58;98427.75;;;27.78;56.27
31239;BME280;17871;31.584;74.450;2023-02-21T10:43:48;98426.34;;;27.72;56.08
31239;BME280;17871;31.584;74.450;2023-02-21T10:46:24;98424.00;;;27.68;56.72
31239;BME280;17871;31.584;74.450;2023-02-21T10:49:16;98422.22;;;27.68;54.84
31239;BME280;17871;31.584;74.450;2023-02-21T10:51:46;98420.53;;;27.53;55.13
31239;BME280;17871;31.584;74.450;2023-02-21T10:54:20;98417.44;;;27.61;54.91
31239;BME280;17871;31.584;74.450;2023-02-21T10:56:51;98420.72;;;27.64;55.12
31239;BME280;17871;31.584;74.450;2023-02-21T10:59:26;98419.31;;;27.59;55.26
31239;BME280;17871;31.584;74.450;2023-02-21T11:01:56;98410.22;;;27.50;55.12
31239;BME280;17871;31.584;74.450;2023-02-21T11:04:34;98414.22;;;27.70;55.42
31239;BME280;17871;31.584;74.450;2023-02-21T11:07:08;98411.72;;;27.54;54.07
31239;BME280;17871;31.584;74.450;2023-02-21T11:09:42;98411.63;;;27.56;55.66
31239;BME280;17871;31.584;74.450;2023-02-21T11:17:23;98410.38;;;27.33;54.91
31239;BME280;17871;31.584;74.450;2023-02-21T11:20:24;98411.34;;;27.46;54.78
31239;BME280;17871;31.584;74.450;2023-02-21T11:22:54;98421.31;;;27.25;52.50
31239;BME280;17871;31.584;74.450;2023-02-21T11:25:30;98417.09;;;27.37;52.83
31239;BME280;17871;31.584;74.450;2023-02-21T11:33:29;98406.97;;;27.17;51.99
31239;BME280;17871;31.584;74.450;2023-02-21T11:36:12;98417.47;;;27.31;51.75
31239;BME280;17871;31.584;74.450;2023-02-21T11:38:44;98423.06;;;27.11;52.29
31239;BME280;17871;31.584;74.450;2023-02-21T11:41:47;98415.31;;;27.23;52.84
31239;BME280;17871;31.584;74.450;2023-02-21T11:47:03;98419.59;;;27.10;53.86
31239;BME280;17871;31.584;74.450;2023-02-21T11:52:50;98421.53;;;26.93;52.48
31239;BME280;17871;31.584;74.450;2023-02-21T11:55:22;98425.38;;;26.87;53.33
31239;BME280;17871;31.584;74.450;2023-02-21T12:00:57;98411.31;;;26.88;56.74
31239;BME280;17871;31.584;74.450;2023-02-21T12:06:59;98421.41;;;26.64;54.18
31239;BME280;17871;31.584;74.450;2023-02-21T12:09:26;98424.63;;;26.69;51.93
31239;BME280;17871;31.584;74.450;2023-02-21T12:31:44;98424.66;;;26.07;56.10
31239;BME280;17871;31.584;74.450;2023-02-21T12:37:37;98429.97;;;26.05;57.02
31239;BME280;17871;31.584;74.450;2023-02-21T12:40:28;98426.31;;;25.92;57.68
31239;BME280;17871;31.584;74.450;2023-02-21T12:51:21;98429.97;;;25.57;60.30
31239;BME280;17871;31.584;74.450;2023-02-21T12:53:58;98439.88;;;25.52;60.52
31239;BME280;17871;31.584;74.450;2023-02-21T12:59:21;98452.56;;;25.42;61.22
31239;BME280;17871;31.584;74.450;2023-02-21T13:02:00;98446.00;;;25.34;61.72
31239;BME280;17871;31.584;74.450;2023-02-21T13:07:22;98448.09;;;25.27;62.68
31239;BME280;17871;31.584;74.450;2023-02-21T13:10:17;98455.34;;;25.22;63.02
31239;BME280;17871;31.584;74.450;2023-02-21T13:12:58;98459.41;;;25.27;63.43
31239;BME280;17871;31.584;74.450;2023-02-21T13:15:29;98465.31;;;24.97;64.12
31239;BME280;17871;31.584;74.450;2023-02-21T13:20:39;98468.94;;;24.94;64.15
31239;BME280;17871;31.584;74.450;2023-02-21T13:23:40;98465.81;;;25.05;63.69
31239;BME280;17871;31.584;74.450;2023-02-21T13:29:36;98482.31;;;24.88;63.37
31239;BME280;17871;31.584;74.450;2023-02-21T13:32:14;98472.81;;;24.68;63.48
31239;BME280;17871;31.584;74.450;2023-02-21T13:37:25;98479.09;;;24.64;63.37
31239;BME280;17871;31.584;74.450;2023-02-21T13:39:58;98480.16;;;24.60;63.01
31239;BME280;17871;31.584;74.450;2023-02-21T13:42:36;98487.22;;;24.58;63.14
31239;BME280;17871;31.584;74.450;2023-02-21T13:53:13;98496.78;;;24.41;63.31
31239;BME280;17871;31.584;74.450;2023-02-21T13:58:41;98493.97;;;24.45;61.64
31239;BME280;17871;31.584;74.450;2023-02-21T14:01:20;98500.19;;;24.24;61.53
31239;BME280;17871;31.584;74.450;2023-02-21T14:03:54;98504.50;;;24.25;61.68
31239;BME280;17871;31.584;74.450;2023-02-21T14:06:35;98500.59;;;24.34;61.15
31239;BME280;17871;31.584;74.450;2023-02-21T14:09:10;98504.34;;;24.28;61.40
31239;BME280;17871;31.584;74.450;2023-02-21T14:11:47;98509.66;;;24.26;61.51
31239;BME280;17871;31.584;74.450;2023-02-21T14:14:25;98512.06;;;24.11;62.00
31239;BME280;17871;31.584;74.450;2023-02-21T14:17:05;98518.63;;;24.01;62.28
31239;BME280;17871;31.584;74.450;2023-02-21T14:19:48;98521.03;;;24.05;62.03
31239;BME280;17871;31.584;74.450;2023-02-21T14:22:26;98519.69;;;23.97;62.45
31239;BME280;17871;31.584;74.450;2023-02-21T14:25:20;98526.09;;;23.90;62.78
31239;BME280;17871;31.584;74.450;2023-02-21T14:27:51;98527.97;;;23.67;62.86
31239;BME280;17871;31.584;74.450;2023-02-21T14:30:28;98528.59;;;23.72;63.31
31239;BME280;17871;31.584;74.450;2023-02-21T14:33:06;98523.84;;;23.62;63.89
31239;BME280;17871;31.584;74.450;2023-02-21T14:35:45;98532.72;;;23.58;64.21
31239;BME280;17871;31.584;74.450;2023-02-21T14:38:24;98534.63;;;23.54;64.58
31239;BME280;17871;31.584;74.450;2023-02-21T14:43:46;98545.44;;;23.45;65.32
31239;BME280;17871;31.584;74.450;2023-02-21T14:46:30;98539.47;;;23.21;65.66
31239;BME280;17871;31.584;74.450;2023-02-21T15:03:53;98552.13;;;23.09;67.07
31239;BME280;17871;31.584;74.450;2023-02-21T15:06:25;98559.69;;;22.95;66.98
31239;BME280;17871;31.584;74.450;2023-02-21T15:08:55;98565.59;;;22.77;67.45
31239;BME280;17871;31.584;74.450;2023-02-21T15:16:43;98568.66;;;22.88;67.62
31239;BME280;17871;31.584;74.450;2023-02-21T15:24:40;98569.91;;;22.54;68.04
31239;BME280;17871;31.584;74.450;2023-02-21T15:27:13;98567.78;;;22.65;68.41
31239;BME280;17871;31.584;74.450;2023-02-21T15:29:42;98566.75;;;22.46;68.71
31239;BME280;17871;31.584;74.450;2023-02-21T15:32:11;98578.09;;;22.45;68.51
31239;BME280;17871;31.584;74.450;2023-02-21T15:34:42;98569.53;;;22.42;68.85
31239;BME280;17871;31.584;74.450;2023-02-21T15:37:24;98577.16;;;22.46;69.22
31239;BME280;17871;31.584;74.450;2023-02-21T15:40:01;98579.22;;;22.38;69.09
31239;BME280;17871;31.584;74.450;2023-02-21T15:42:34;98582.06;;;22.32;69.16
31239;BME280;17871;31.584;74.450;2023-02-21T15:45:07;98581.03;;;22.36;69.41
31239;BME280;17871;31.584;74.450;2023-02-21T15:47:38;98580.75;;;22.20;69.62
31239;BME280;17871;31.584;74.450;2023-02-21T15:50:18;98582.72;;;22.37;69.88
31239;BME280;17871;31.584;74.450;2023-02-21T15:52:54;98578.22;;;22.19;70.15
31239;BME280;17871;31.584;74.450;2023-02-21T15:55:29;98586.47;;;22.30;70.01
31239;BME280;17871;31.584;74.450;2023-02-21T16:00:35;98580.59;;;22.25;69.52